Time;durP1;ratioP1;P1;durP2;ratioP2;P2;SDS_P1;SDS_P2;PMS_P1;PMS_P2;Temp;Humidity;BMP_temperature;BMP_pressure;BME280_temperature;BME280_humidity;BME280_pressure;Samples;Min_cycle;Max_cycle;Signal;HPM_P1;HPM_P2
2022/08/14 00:01:47;;;;;;;25.95;24.15;;;20.20;99.90;;;;;;5015246;28;20048;-70
2022/08/14 00:04:22;;;;;;;26.13;24.33;;;20.20;99.90;;;;;;5000673;28;20049;-70
2022/08/14 00:07:10;;;;;;;27.98;25.70;;;20.10;99.90;;;;;;5017787;28;21106;-71
2022/08/14 00:09:40;;;;;;;28.50;26.42;;;20.00;99.90;;;;;;4994468;28;20045;-70
2022/08/14 00:12:28;;;;;;;27.77;25.65;;;19.80;99.90;;;;;;5016939;28;20065;-71
2022/08/14 00:15:20;;;;;;;27.88;25.90;;;19.60;99.90;;;;;;5001348;28;20065;-70
2022/08/14 00:17:50;;;;;;;27.52;25.63;;;19.50;99.90;;;;;;5016194;28;20048;-70
2022/08/14 00:20:22;;;;;;;27.27;25.27;;;19.60;99.90;;;;;;4994470;28;20041;-69
2022/08/14 00:23:03;;;;;;;28.05;25.90;;;19.50;99.90;;;;;;5019706;28;20049;-72
2022/08/14 00:25:40;;;;;;;27.80;25.70;;;19.40;99.90;;;;;;4992741;28;20045;-71
2022/08/14 00:28:11;;;;;;;28.45;26.40;;;19.20;99.90;;;;;;5017183;28;20038;-72
2022/08/14 00:30:44;;;;;;;;;;;19.10;99.90;;;;;;5013104;28;20152;-70
2022/08/14 00:33:11;;;;;;;27.52;25.45;;;19.10;99.90;;;;;;5023494;28;20019;-73
2022/08/14 00:35:44;;;;;;;27.02;24.83;;;19.00;99.90;;;;;;5014129;28;20038;-70
2022/08/14 00:38:31;;;;;;;27.10;25.17;;;19.00;99.90;;;;;;5000080;28;20060;-71
2022/08/14 00:41:01;;;;;;;27.73;25.73;;;18.80;99.90;;;;;;5033498;28;20624;-70
2022/08/14 00:43:29;;;;;;;27.70;25.67;;;18.70;99.90;;;;;;5034929;28;20041;-70
2022/08/14 00:46:06;;;;;;;28.10;26.00;;;18.70;99.90;;;;;;5052149;28;20065;-70
2022/08/14 00:48:35;;;;;;;26.83;24.90;;;18.60;99.90;;;;;;5034036;28;20086;-71
2022/08/14 00:51:07;;;;;;;25.50;23.80;;;18.60;99.90;;;;;;5034538;28;20463;-72
2022/08/14 00:53:36;;;;;;;27.83;25.50;;;18.50;99.90;;;;;;5052732;28;20555;-72
2022/08/14 00:56:06;;;;;;;27.25;25.25;;;18.50;99.90;;;;;;5018439;28;20051;-72
2022/08/14 00:58:36;;;;;;;27.95;25.92;;;18.60;99.90;;;;;;5034849;28;20471;-71
2022/08/14 01:01:15;;;;;;;27.63;25.48;;;18.70;99.90;;;;;;5033578;28;20521;-70
2022/08/14 01:03:44;;;;;;;27.90;25.80;;;18.70;99.90;;;;;;5050084;28;20055;-71
2022/08/14 01:06:15;;;;;;;28.05;25.83;;;18.50;99.90;;;;;;5031284;28;20049;-71
2022/08/14 01:08:44;;;;;;;27.08;24.98;;;18.50;99.90;;;;;;5029313;28;20047;-70
2022/08/14 01:11:26;;;;;;;27.58;25.45;;;18.40;99.90;;;;;;5027472;28;20065;-70
2022/08/14 01:14:03;;;;;;;27.50;25.45;;;18.30;99.90;;;;;;5030556;28;20041;-69
2022/08/14 01:16:49;;;;;;;28.55;26.10;;;18.30;99.90;;;;;;5043908;28;20056;-69
2022/08/14 01:22:09;;;;;;;27.40;25.40;;;18.10;99.90;;;;;;5030553;28;20441;-71
2022/08/14 01:24:40;;;;;;;26.30;24.42;;;18.10;99.90;;;;;;5029870;28;20468;-69
2022/08/14 01:27:20;;;;;;;27.02;25.02;;;18.00;99.90;;;;;;5044952;28;20068;-69
2022/08/14 01:29:50;;;;;;;26.10;24.30;;;18.10;99.90;;;;;;5032093;28;20043;-69
2022/08/14 01:32:32;;;;;;;26.88;24.52;;;17.90;99.90;;;;;;5029538;28;20138;-71
2022/08/14 01:35:08;;;;;;;26.75;24.55;;;17.80;99.90;;;;;;5030802;28;20122;-70
2022/08/14 01:37:56;;;;;;;26.92;24.83;;;17.80;99.90;;;;;;5034220;28;20132;-70
2022/08/14 01:40:28;;;;;;;26.98;24.92;;;17.80;99.90;;;;;;5040300;28;20049;-70
2022/08/14 01:43:14;;;;;;;27.25;25.25;;;17.90;99.90;;;;;;5039688;28;20045;-70
2022/08/14 01:45:41;;;;;;;26.30;24.40;;;17.80;99.90;;;;;;5033462;28;20044;-72
2022/08/14 01:48:31;;;;;;;25.92;23.85;;;17.90;99.90;;;;;;5052850;28;20051;-71
2022/08/14 01:51:01;;;;;;;27.17;24.90;;;17.80;99.90;;;;;;5036573;28;20575;-72
2022/08/14 01:53:30;;;;;;;27.17;25.08;;;17.80;99.90;;;;;;5036167;28;20045;-72
2022/08/14 01:56:04;;;;;;;26.95;24.95;;;17.90;99.90;;;;;;5036391;28;20044;-71
2022/08/14 01:58:38;;;;;;;26.52;24.42;;;17.90;99.90;;;;;;5056320;28;20048;-70
2022/08/14 02:01:24;;;;;;;26.17;24.15;;;17.70;99.90;;;;;;5038208;28;20312;-72
2022/08/14 02:03:52;;;;;;;27.25;25.10;;;17.60;99.90;;;;;;5056876;28;20048;-72
2022/08/14 02:06:25;;;;;;;27.45;25.33;;;17.60;99.90;;;;;;5025684;28;20041;-72
2022/08/14 02:09:02;;;;;;;27.17;24.98;;;17.60;99.90;;;;;;5021269;28;20348;-72
2022/08/14 02:11:45;;;;;;;;;;;17.60;99.90;;;;;;5047329;28;20494;-71
2022/08/14 02:14:13;;;;;;;26.48;24.48;;;17.60;99.90;;;;;;5055153;28;20612;-69
2022/08/14 02:16:56;;;;;;;27.50;25.27;;;17.50;99.90;;;;;;5050637;28;20050;-71
2022/08/14 02:19:29;;;;;;;25.15;23.17;;;17.60;99.90;;;;;;5051656;28;20043;-70
2022/08/14 02:21:59;;;;;;;26.20;24.00;;;17.60;99.90;;;;;;5050190;28;20547;-72
2022/08/14 02:24:29;;;;;;;26.65;24.48;;;17.50;99.90;;;;;;5052927;28;20174;-72
2022/08/14 02:27:08;;;;;;;25.20;23.23;;;17.50;99.90;;;;;;5064640;28;20247;-71
2022/08/14 02:29:55;;;;;;;25.23;23.17;;;17.30;99.90;;;;;;5034807;28;20082;-71
2022/08/14 02:32:32;;;;;;;26.10;24.20;;;17.30;99.90;;;;;;5035476;28;20041;-72
2022/08/14 02:35:17;;;;;;;25.42;23.63;;;17.30;99.90;;;;;;5054925;28;20044;-71
2022/08/14 02:37:48;;;;;;;27.63;25.33;;;17.20;99.90;;;;;;5050018;28;20149;-71
2022/08/14 02:40:18;;;;;;;25.75;23.85;;;17.20;99.90;;;;;;5035570;28;20044;-73
2022/08/14 02:42:46;;;;;;;26.90;24.77;;;17.20;99.90;;;;;;5035802;28;20725;-70
2022/08/14 02:45:32;;;;;;;27.17;24.98;;;17.30;99.90;;;;;;5034197;28;20055;-68
2022/08/14 02:48:11;;;;;;;26.95;24.75;;;17.10;99.90;;;;;;5051880;28;20137;-70
2022/08/14 02:50:59;;;;;;;27.15;24.70;;;17.20;99.90;;;;;;5046613;28;21354;-70
2022/08/14 02:53:28;;;;;;;27.20;24.85;;;17.00;99.90;;;;;;4999814;28;20053;-70
2022/08/14 02:55:56;;;;;;;24.50;22.73;;;17.00;99.90;;;;;;5015465;28;20120;-70
2022/08/14 02:58:30;;;;;;;25.50;23.15;;;17.20;99.90;;;;;;5031713;28;20044;-69
2022/08/14 03:00:58;;;;;;;24.42;22.42;;;17.30;99.90;;;;;;5016919;28;20140;-70
2022/08/14 03:03:27;;;;;;;24.10;21.90;;;17.50;99.90;;;;;;5015161;28;20075;-70
2022/08/14 03:05:57;;;;;;;24.75;22.70;;;17.60;99.90;;;;;;5024221;28;20254;-71
2022/08/14 03:08:30;;;;;;;24.35;22.45;;;17.60;99.90;;;;;;5052713;28;20040;-69
2022/08/14 03:10:59;;;;;;;23.98;22.27;;;17.70;99.90;;;;;;5036307;28;20110;-70
2022/08/14 03:13:27;;;;;;;25.05;22.80;;;17.90;99.90;;;;;;5052898;28;21266;-69
2022/08/14 03:15:55;;;;;;;24.40;22.45;;;18.00;99.90;;;;;;5035445;28;20055;-69
2022/08/14 03:18:27;;;;;;;26.42;24.10;;;18.10;99.90;;;;;;5034763;28;20159;-70
2022/08/14 03:21:04;;;;;;;24.70;22.80;;;18.20;99.90;;;;;;5047006;28;20051;-70
2022/08/14 03:23:34;;;;;;;24.27;22.42;;;18.20;99.90;;;;;;5014953;28;20353;-68
2022/08/14 03:26:11;;;;;;;25.52;23.27;;;18.20;99.90;;;;;;5033624;28;20128;-70
2022/08/14 03:28:56;;;;;;;24.63;22.75;;;18.10;99.90;;;;;;5017492;28;20139;-68
2022/08/14 03:31:28;;;;;;;24.75;22.77;;;18.10;99.90;;;;;;5014277;28;20044;-69
2022/08/14 03:33:56;;;;;;;25.90;23.80;;;18.10;99.90;;;;;;5032019;28;20071;-71
2022/08/14 03:36:27;;;;;;;24.85;22.75;;;18.00;99.90;;;;;;5033043;28;20449;-72
2022/08/14 03:39:13;;;;;;;24.08;22.35;;;18.10;99.90;;;;;;5034632;28;20140;-72
2022/08/14 03:41:53;;;;;;;24.17;22.35;;;18.00;99.90;;;;;;5047550;28;20107;-69
2022/08/14 03:44:21;;;;;;;24.42;22.52;;;18.10;99.90;;;;;;5052793;28;20272;-73
2022/08/14 03:47:08;;;;;;;24.77;22.63;;;18.00;99.90;;;;;;5040040;28;20120;-70
2022/08/14 03:49:39;;;;;;;24.67;22.63;;;17.90;99.90;;;;;;5052284;28;20052;-70
2022/08/14 03:52:09;;;;;;;23.52;21.80;;;17.80;99.90;;;;;;5029541;28;20094;-71
2022/08/14 03:54:57;;;;;;;23.50;21.73;;;17.80;99.90;;;;;;5031968;28;20114;-70
2022/08/14 03:57:24;;;;;;;23.83;21.92;;;17.80;99.90;;;;;;5051336;28;20109;-71
2022/08/14 03:59:51;;;;;;;24.25;22.08;;;17.70;99.90;;;;;;5052722;28;20131;-71
2022/08/14 04:02:17;;;;;;;24.90;22.90;;;17.60;99.90;;;;;;5052600;28;20080;-71
2022/08/14 04:05:08;;;;;;;25.13;23.02;;;17.50;99.90;;;;;;5020588;28;20060;-69
2022/08/14 04:07:40;;;;;;;24.33;22.33;;;17.70;99.90;;;;;;5051361;28;20056;-71
2022/08/14 04:10:25;;;;;;;23.70;22.00;;;17.70;99.90;;;;;;5049642;28;20653;-71
2022/08/14 04:13:00;;;;;;;25.48;23.20;;;17.80;99.90;;;;;;5054055;28;20032;-69
2022/08/14 04:15:30;;;;;;;25.92;23.92;;;17.80;99.90;;;;;;5050822;28;20040;-69
2022/08/14 04:18:05;;;;;;;25.00;22.80;;;17.90;99.90;;;;;;5034268;28;20052;-70
2022/08/14 04:20:34;;;;;;;25.73;23.60;;;17.80;99.90;;;;;;5051928;28;20044;-70
2022/08/14 04:23:17;;;;;;;26.35;23.80;;;17.90;99.90;;;;;;5051533;28;20049;-68
2022/08/14 04:25:52;;;;;;;25.65;23.60;;;17.90;99.90;;;;;;5031923;28;20045;-70
2022/08/14 04:28:20;;;;;;;28.33;25.88;;;17.90;99.90;;;;;;5034512;28;20550;-71
2022/08/14 04:31:07;;;;;;;26.33;24.02;;;17.90;99.90;;;;;;5051109;28;20135;-70
2022/08/14 04:33:35;;;;;;;26.80;24.50;;;17.90;99.90;;;;;;5051969;28;20044;-69
2022/08/14 04:36:03;;;;;;;26.40;24.40;;;17.90;99.90;;;;;;5034358;28;20041;-70
2022/08/14 04:44:03;;;;;;;27.70;25.20;;;17.90;99.90;;;;;;5052760;28;20044;-70
2022/08/14 04:46:33;;;;;;;26.98;24.70;;;17.90;99.90;;;;;;5051707;28;20398;-72
2022/08/14 04:49:20;;;;;;;27.15;25.08;;;18.00;99.90;;;;;;5052264;28;20135;-70
2022/08/14 04:51:49;;;;;;;26.50;24.42;;;18.00;99.90;;;;;;5052511;28;20040;-69
2022/08/14 04:54:25;;;;;;;26.98;24.77;;;18.00;99.90;;;;;;5035482;28;20048;-69
2022/08/14 04:56:54;;;;;;;27.90;25.65;;;18.00;99.90;;;;;;5051732;28;20051;-71
2022/08/14 04:59:23;;;;;;;26.20;24.23;;;17.90;99.90;;;;;;5052884;28;20044;-72
2022/08/14 05:01:51;;;;;;;26.40;24.30;;;18.00;99.90;;;;;;5034675;28;20573;-70
2022/08/14 05:04:23;;;;;;;28.08;25.52;;;17.90;99.90;;;;;;5034267;28;20215;-72
2022/08/14 05:06:53;;;;;;;27.58;25.17;;;18.00;99.90;;;;;;5051663;28;20048;-71
2022/08/14 05:09:24;;;;;;;27.45;25.15;;;18.10;99.90;;;;;;5052917;28;20071;-71
2022/08/14 05:11:55;;;;;;;27.17;24.83;;;18.20;99.90;;;;;;5056634;28;20430;-69
2022/08/14 05:14:42;;;;;;;26.60;24.33;;;18.20;99.90;;;;;;5050878;28;20071;-68
2022/08/14 05:17:24;;;;;;;27.30;24.95;;;18.30;99.90;;;;;;5052571;28;20041;-69
2022/08/14 05:19:58;;;;;;;26.33;24.20;;;18.20;99.90;;;;;;5056861;28;20518;-70
2022/08/14 05:22:44;;;;;;;26.45;24.42;;;18.40;99.90;;;;;;5038362;28;20139;-70
2022/08/14 05:25:11;;;;;;;27.88;25.60;;;18.50;99.90;;;;;;5057435;28;20053;-70
2022/08/14 05:27:41;;;;;;;26.80;24.65;;;18.60;99.90;;;;;;5054551;28;20048;-71
2022/08/14 05:30:08;;;;;;;27.73;25.33;;;18.70;99.90;;;;;;5058629;28;20547;-71
2022/08/14 05:32:35;;;;;;;27.13;24.98;;;18.70;99.90;;;;;;5037125;28;20140;-71
2022/08/14 05:35:02;;;;;;;25.60;23.77;;;18.80;99.90;;;;;;5056092;28;20049;-71
2022/08/14 05:37:29;;;;;;;27.38;25.13;;;19.00;99.90;;;;;;5033944;28;20181;-71
2022/08/14 05:39:57;;;;;;;25.52;23.63;;;19.10;99.90;;;;;;5055380;28;20056;-70
2022/08/14 05:42:25;;;;;;;28.02;25.85;;;19.20;99.90;;;;;;5055412;28;20036;-70
2022/08/14 05:44:57;;;;;;;26.35;24.48;;;19.20;99.90;;;;;;5037521;28;20390;-69
2022/08/14 05:47:25;;;;;;;27.13;25.17;;;19.30;99.90;;;;;;5052450;28;20126;-69
2022/08/14 05:49:57;;;;;;;28.05;26.05;;;19.40;99.90;;;;;;5054617;28;20057;-70
2022/08/14 05:52:23;;;;;;;28.23;26.13;;;19.50;99.90;;;;;;5036744;28;20126;-71
2022/08/14 05:55:10;;;;;;;28.50;26.10;;;19.60;99.90;;;;;;5052239;28;20131;-70
2022/08/14 05:57:51;;;;;;;28.30;26.25;;;19.70;99.90;;;;;;5054120;28;20348;-70
2022/08/14 06:00:21;;;;;;;28.50;26.15;;;19.80;99.90;;;;;;5054604;28;20052;-71
2022/08/14 06:02:59;;;;;;;28.17;25.85;;;19.80;99.90;;;;;;5055670;28;20048;-70
2022/08/14 06:05:33;;;;;;;29.48;27.27;;;19.80;99.90;;;;;;5053750;28;20043;-69
2022/08/14 06:08:04;;;;;;;28.73;26.73;;;19.90;99.90;;;;;;5052958;28;20044;-70
2022/08/14 06:10:49;;;;;;;28.38;26.17;;;19.90;99.90;;;;;;5040388;28;20480;-70
2022/08/14 06:13:17;;;;;;;28.50;26.27;;;20.00;99.90;;;;;;5056019;28;20098;-69
2022/08/14 06:15:45;;;;;;;27.83;25.98;;;20.00;99.90;;;;;;5035993;28;20529;-70
2022/08/14 06:18:14;;;;;;;29.23;27.05;;;20.10;99.90;;;;;;5055579;28;20075;-70
2022/08/14 06:20:43;;;;;;;28.25;26.20;;;20.10;99.90;;;;;;5051965;28;20040;-70
2022/08/14 06:23:12;;;;;;;29.13;27.15;;;20.20;99.90;;;;;;5040664;28;20284;-70
2022/08/14 06:25:40;;;;;;;28.40;26.40;;;20.30;99.90;;;;;;5048686;28;20554;-70
2022/08/14 06:28:07;;;;;;;30.40;28.10;;;20.40;99.90;;;;;;5040434;28;20135;-69
2022/08/14 06:30:53;;;;;;;30.25;28.08;;;20.50;99.90;;;;;;5037601;28;20044;-70
2022/08/14 06:33:21;;;;;;;29.77;27.75;;;20.70;99.90;;;;;;5039104;28;20471;-70
2022/08/14 06:35:48;;;;;;;29.83;27.60;;;20.70;99.90;;;;;;5053148;28;20037;-70
2022/08/14 06:38:20;;;;;;;28.88;26.88;;;20.90;99.90;;;;;;5037823;28;20068;-70
2022/08/14 06:40:50;;;;;;;29.60;27.35;;;21.10;99.90;;;;;;5035745;28;20536;-70
2022/08/14 06:43:19;;;;;;;29.77;27.50;;;21.20;99.90;;;;;;5035901;28;20036;-69
2022/08/14 06:45:48;;;;;;;28.67;26.48;;;21.10;99.90;;;;;;5054503;28;20067;-69
2022/08/14 06:48:24;;;;;;;29.00;26.85;;;21.10;99.90;;;;;;5056598;28;20056;-70
2022/08/14 06:50:53;;;;;;;28.58;26.65;;;21.30;99.90;;;;;;5053717;28;20420;-70
2022/08/14 06:53:20;;;;;;;30.23;27.92;;;21.40;99.90;;;;;;5053064;28;20040;-69
2022/08/14 06:55:48;;;;;;;30.92;28.45;;;21.70;99.90;;;;;;5051115;28;20041;-70
2022/08/14 06:58:27;;;;;;;31.98;29.67;;;21.90;99.90;;;;;;5053302;28;20583;-70
2022/08/14 07:06:49;;;;;;;31.00;28.88;;;22.40;99.90;;;;;;5051234;28;20044;-69
2022/08/14 07:09:17;;;;;;;32.05;30.02;;;22.30;99.90;;;;;;5055994;28;20119;-71
2022/08/14 07:11:50;;;;;;;33.03;30.90;;;22.50;99.90;;;;;;5022270;28;20068;-70
2022/08/14 07:14:17;;;;;;;31.75;29.67;;;22.70;99.90;;;;;;5017368;28;20155;-68
2022/08/14 07:16:44;;;;;;;30.30;28.20;;;22.40;99.90;;;;;;5032075;28;20291;-70
2022/08/14 07:19:11;;;;;;;32.97;30.88;;;22.30;99.90;;;;;;5033375;28;20115;-70
2022/08/14 07:21:38;;;;;;;33.00;30.73;;;22.50;99.90;;;;;;5029356;28;20102;-70
2022/08/14 07:24:06;;;;;;;34.53;32.08;;;22.50;99.90;;;;;;5050067;28;20044;-70
2022/08/14 07:26:47;;;;;;;34.92;32.28;;;22.30;99.90;;;;;;5048469;28;20115;-71
2022/08/14 07:29:14;;;;;;;33.03;30.75;;;22.10;99.90;;;;;;5041056;28;20048;-70
2022/08/14 07:31:43;;;;;;;33.10;30.60;;;22.20;99.90;;;;;;5019796;28;20098;-70
2022/08/14 07:34:09;;;;;;;33.08;30.98;;;22.60;99.90;;;;;;5034630;28;20093;-71
2022/08/14 07:36:37;;;;;;;33.45;31.08;;;22.80;99.90;;;;;;5031828;28;20667;-70
2022/08/14 07:39:23;;;;;;;32.50;30.05;;;23.00;99.90;;;;;;5019645;28;20044;-70
2022/08/14 07:41:53;;;;;;;32.70;30.60;;;23.30;99.90;;;;;;5025834;28;20118;-69
2022/08/14 07:44:20;;;;;;;32.63;30.33;;;23.30;99.90;;;;;;5034624;28;20494;-70
2022/08/14 07:47:02;;;;;;;33.50;31.20;;;23.50;99.90;;;;;;5034239;28;20045;-69
2022/08/14 07:49:33;;;;;;;31.48;29.48;;;23.50;99.90;;;;;;5035815;28;20075;-69
2022/08/14 07:52:03;;;;;;;32.97;30.65;;;23.80;99.90;;;;;;5000704;28;20100;-70
2022/08/14 07:54:30;;;;;;;32.50;30.15;;;24.00;99.90;;;;;;5011998;28;20061;-70
2022/08/14 07:57:00;;;;;;;30.75;28.85;;;24.40;99.90;;;;;;5012592;28;20263;-70
2022/08/14 07:59:40;;;;;;;31.33;29.42;;;24.70;99.90;;;;;;5012278;28;20075;-71
2022/08/14 08:02:14;;;;;;;30.90;28.90;;;25.10;99.90;;;;;;5009107;28;20580;-70
2022/08/14 08:04:52;;;;;;;31.65;29.52;;;25.30;99.90;;;;;;5011888;28;20049;-70
2022/08/14 08:07:25;;;;;;;31.38;29.38;;;25.30;99.90;;;;;;5010182;28;20064;-72
2022/08/14 08:09:57;;;;;;;31.20;29.20;;;25.20;99.90;;;;;;5012816;28;20037;-70
2022/08/14 08:12:27;;;;;;;31.67;29.60;;;25.00;99.90;;;;;;5010077;28;20045;-70
2022/08/14 08:15:06;;;;;;;32.00;29.85;;;24.90;99.90;;;;;;5007922;28;20095;-72
2022/08/14 08:17:38;;;;;;;32.75;30.45;;;25.00;99.90;;;;;;5031198;28;20051;-71
2022/08/14 08:20:23;;;;;;;32.50;30.40;;;25.20;99.90;;;;;;5019766;28;20103;-71
2022/08/14 08:22:57;;;;;;;33.87;31.47;;;25.10;99.90;;;;;;5037343;28;20513;-72
2022/08/14 08:25:35;;;;;;;31.80;29.63;;;25.10;99.90;;;;;;5030162;28;20455;-72
2022/08/14 08:28:14;;;;;;;31.65;29.63;;;25.10;99.90;;;;;;5013273;28;20057;-71
2022/08/14 08:30:57;;;;;;;30.45;28.40;;;25.20;99.90;;;;;;5009672;28;20168;-72
2022/08/14 08:33:31;;;;;;;31.88;29.67;;;25.30;99.90;;;;;;5011870;28;20048;-71
2022/08/14 08:36:06;;;;;;;32.60;30.40;;;25.40;99.90;;;;;;5011102;28;20072;-72
2022/08/14 08:38:34;;;;;;;32.25;30.15;;;25.80;99.90;;;;;;5011581;28;20090;-72
2022/08/14 08:41:20;;;;;;;31.80;29.60;;;25.40;99.90;;;;;;5058183;22;20530;-71
2022/08/14 08:43:49;;;;;;;31.17;29.25;;;25.60;99.90;;;;;;5033835;28;20029;-71
2022/08/14 08:46:20;;;;;;;31.75;29.52;;;25.90;99.90;;;;;;5029181;28;20041;-71
2022/08/14 08:48:52;;;;;;;30.42;28.25;;;26.00;99.90;;;;;;5016905;28;20037;-71
2022/08/14 08:51:24;;;;;;;31.77;29.73;;;26.30;99.90;;;;;;5053222;28;20525;-70
2022/08/14 08:54:12;;;;;;;32.42;30.42;;;25.80;99.90;;;;;;5050178;28;20044;-72
2022/08/14 08:56:48;;;;;;;32.78;30.60;;;25.50;99.90;;;;;;5058579;28;20048;-70
2022/08/14 08:59:19;;;;;;;32.22;30.23;;;25.20;99.90;;;;;;5061588;28;20059;-72
2022/08/14 09:02:08;;;;;;;30.92;29.08;;;25.20;99.90;;;;;;5048193;28;20632;-71
2022/08/14 09:04:40;;;;;;;31.83;29.73;;;25.60;99.90;;;;;;5060145;28;20075;-71
2022/08/14 09:07:25;;;;;;;32.50;30.50;;;25.90;99.90;;;;;;5071041;28;20248;-71
2022/08/14 09:09:55;;;;;;;33.33;31.00;;;26.40;99.90;;;;;;5060388;28;20253;-71
2022/08/14 09:12:25;;;;;;;31.92;30.02;;;26.90;99.90;;;;;;5061892;28;20040;-71
2022/08/14 09:14:56;;;;;;;32.22;30.33;;;27.10;99.90;;;;;;5062265;28;20501;-72
2022/08/14 09:17:23;;;;;;;31.27;29.38;;;27.10;99.90;;;;;;5047221;28;20384;-72
2022/08/14 09:19:52;;;;;;;30.80;28.90;;;26.60;99.90;;;;;;5060961;28;20044;-71
2022/08/14 09:22:20;;;;;;;30.98;28.98;;;27.00;99.90;;;;;;5047597;28;20032;-73
2022/08/14 09:25:04;;;;;;;30.55;28.55;;;27.00;99.90;;;;;;5070516;28;20146;-75
2022/08/14 09:27:34;;;;;;;31.75;29.70;;;27.30;99.90;;;;;;5089710;28;20050;-75
2022/08/14 09:30:01;;;;;;;31.55;29.45;;;27.30;99.90;;;;;;5073200;28;20084;-75
2022/08/14 09:33:03;;;;;;;32.10;30.00;;;26.70;99.90;;;;;;5068107;28;20132;-76
2022/08/14 09:35:53;;;;;;;32.28;30.27;;;26.10;99.90;;;;;;5074233;28;20036;-75
2022/08/14 09:38:44;;;;;;;33.53;31.37;;;26.00;99.90;;;;;;5093329;28;20116;-74
2022/08/14 09:41:18;;;;;;;32.40;30.50;;;26.50;99.90;;;;;;5052796;28;20684;-74
2022/08/14 09:44:04;;;;;;;32.47;30.47;;;26.80;99.90;;;;;;5064351;28;20479;-77
2022/08/14 09:46:34;;;;;;;31.60;29.35;;;27.50;99.90;;;;;;5072696;28;20442;-75
2022/08/14 09:49:06;;;;;;;31.15;29.35;;;27.70;99.90;;;;;;5069808;28;20168;-74
2022/08/14 09:51:44;;;;;;;32.08;30.10;;;27.80;99.90;;;;;;5053906;28;20055;-74
2022/08/14 09:54:36;;;;;;;31.73;29.83;;;27.70;99.90;;;;;;5072261;28;20040;-76
2022/08/14 09:57:05;;;;;;;31.92;30.13;;;27.40;99.90;;;;;;5040742;28;20043;-75
2022/08/14 09:59:46;;;;;;;32.97;30.95;;;26.80;99.90;;;;;;5057315;28;20113;-75
2022/08/14 10:02:30;;;;;;;31.63;29.75;;;27.00;99.90;;;;;;5053839;28;20051;-75
2022/08/14 10:05:08;;;;;;;32.42;30.50;;;26.80;99.90;;;;;;5049602;28;20134;-75
2022/08/14 10:07:50;;;;;;;30.73;28.67;;;27.20;99.90;;;;;;5055096;28;20048;-75
2022/08/14 10:10:32;;;;;;;30.98;29.08;;;27.00;99.90;;;;;;5072966;28;20390;-75
2022/08/14 10:13:02;;;;;;;31.38;29.08;;;27.10;99.90;;;;;;5065137;28;20094;-76
2022/08/14 10:15:32;;;;;;;31.75;29.92;;;27.50;99.90;;;;;;5068327;28;20041;-75
2022/08/14 10:18:09;;;;;;;30.77;28.58;;;27.90;99.90;;;;;;5071143;28;20040;-75
2022/08/14 10:20:59;;;;;;;32.10;30.13;;;27.60;99.90;;;;;;5067489;28;20060;-76
2022/08/14 10:23:39;;;;;;;30.17;28.38;;;28.10;99.90;;;;;;5071226;28;20052;-75
2022/08/14 10:26:06;;;;;;;30.77;28.88;;;28.20;99.90;;;;;;5069931;28;20040;-76
2022/08/14 10:28:43;;;;;;;30.75;28.95;;;28.10;99.90;;;;;;5061814;28;20558;-75
2022/08/14 10:31:32;;;;;;;29.63;27.65;;;28.00;99.90;;;;;;5069680;28;20406;-75
2022/08/14 10:34:17;;;;;;;31.38;29.27;;;28.20;99.90;;;;;;5057211;28;20044;-76
2022/08/14 10:36:47;;;;;;;30.92;29.13;;;28.60;99.90;;;;;;5050173;28;20044;-76
2022/08/14 10:39:28;;;;;;;31.58;29.67;;;28.70;99.90;;;;;;5046721;28;20072;-75
2022/08/14 10:42:04;;;;;;;31.67;29.88;;;28.70;99.90;;;;;;5090537;28;20051;-75
2022/08/14 10:44:48;;;;;;;30.88;28.98;;;28.10;99.90;;;;;;5092030;28;20488;-75
2022/08/14 10:47:18;;;;;;;31.33;29.25;;;27.80;99.90;;;;;;5070596;28;20544;-76
2022/08/14 10:50:06;;;;;;;31.00;29.25;;;28.10;99.90;;;;;;5072526;28;20066;-75
2022/08/14 10:52:37;;;;;;;30.70;28.92;;;28.30;99.90;;;;;;5091660;28;20474;-76
2022/08/14 10:55:12;;;;;;;31.50;29.55;;;28.60;99.90;;;;;;5085265;28;20075;-76
2022/08/14 10:57:53;;;;;;;30.17;28.48;;;28.50;99.90;;;;;;5087566;28;20481;-75
2022/08/14 11:00:25;;;;;;;30.42;28.52;;;28.30;99.90;;;;;;5084443;28;20039;-75
2022/08/14 11:03:08;;;;;;;31.45;29.35;;;28.00;99.90;;;;;;5085317;28;20799;-76
2022/08/14 11:05:44;;;;;;;29.83;27.92;;;28.20;99.90;;;;;;5063062;28;20040;-75
2022/08/14 11:08:14;;;;;;;30.75;28.95;;;28.00;99.90;;;;;;5084849;28;20450;-75
2022/08/14 11:10:42;;;;;;;31.02;29.13;;;27.90;99.90;;;;;;5068692;28;20104;-74
2022/08/14 11:13:14;;;;;;;31.10;29.30;;;28.00;99.90;;;;;;5078639;28;20043;-74
2022/08/14 11:15:42;;;;;;;31.20;29.35;;;28.20;99.90;;;;;;5058452;28;20371;-75
2022/08/14 11:18:11;;;;;;;31.33;29.45;;;28.80;99.90;;;;;;5070792;28;20039;-75
2022/08/14 11:20:58;;;;;;;30.92;29.23;;;28.70;99.90;;;;;;5057806;28;20063;-75
2022/08/14 11:23:33;;;;;;;32.25;30.35;;;28.50;99.90;;;;;;5087408;28;20124;-76
2022/08/14 11:26:07;;;;;;;30.90;28.85;;;28.60;99.90;;;;;;5082729;28;20134;-75
2022/08/14 11:28:38;;;;;;;31.90;29.95;;;28.30;99.90;;;;;;5065489;28;20055;-76
2022/08/14 11:31:17;;;;;;;31.20;29.30;;;28.60;99.90;;;;;;5068834;28;20040;-75
2022/08/14 11:33:48;;;;;;;31.90;30.00;;;28.00;99.90;;;;;;5070241;28;20044;-75
2022/08/14 11:36:15;;;;;;;29.75;27.85;;;28.00;99.90;;;;;;5091115;28;20399;-75
2022/08/14 11:38:45;;;;;;;30.67;28.95;;;28.00;99.90;;;;;;5081222;28;20044;-75
2022/08/14 11:41:14;;;;;;;32.05;30.25;;;28.00;99.90;;;;;;5086824;28;20036;-75
2022/08/14 11:43:46;;;;;;;32.60;30.80;;;28.30;99.90;;;;;;5063102;28;20502;-75
2022/08/14 11:46:25;;;;;;;31.95;30.00;;;28.80;99.90;;;;;;5052433;28;20056;-76
2022/08/14 11:48:56;;;;;;;32.47;30.55;;;28.50;99.90;;;;;;5047919;28;20067;-76
2022/08/14 11:51:30;;;;;;;32.22;30.23;;;28.20;99.90;;;;;;5046066;28;20080;-75
2022/08/14 11:54:17;;;;;;;30.75;28.70;;;28.00;99.90;;;;;;5065965;28;20131;-74
2022/08/14 11:56:50;;;;;;;32.10;30.27;;;28.20;99.90;;;;;;5044720;28;20746;-75
2022/08/14 11:59:21;;;;;;;30.52;28.73;;;28.80;99.90;;;;;;5045925;28;20075;-75
2022/08/14 12:02:13;;;;;;;31.50;29.70;;;29.10;99.90;;;;;;5067017;28;20532;-75
2022/08/14 12:05:00;;;;;;;31.90;29.90;;;29.60;99.90;;;;;;5057010;28;20203;-75
2022/08/14 12:07:30;;;;;;;30.00;28.20;;;30.00;99.90;;;;;;5064761;28;20640;-74
2022/08/14 12:09:58;;;;;;;31.33;29.42;;;30.30;99.90;;;;;;5064498;28;20060;-76
2022/08/14 12:12:28;;;;;;;32.75;30.65;;;29.60;99.90;;;;;;5061464;28;20055;-77
2022/08/14 12:15:13;;;;;;;30.58;28.67;;;29.30;99.90;;;;;;5039615;28;20506;-75
2022/08/14 12:17:47;;;;;;;33.22;31.23;;;29.40;99.90;;;;;;5045374;28;20090;-74
2022/08/14 12:20:15;;;;;;;32.92;31.02;;;29.00;99.90;;;;;;5049346;28;20040;-73
2022/08/14 12:23:03;;;;;;;31.83;30.02;;;29.20;99.90;;;;;;5070234;28;20570;-74
2022/08/14 12:25:32;;;;;;;31.70;30.00;;;29.50;99.90;;;;;;5057489;28;20525;-74
2022/08/14 12:28:08;;;;;;;32.55;30.65;;;29.50;99.90;;;;;;5060122;28;20062;-75
2022/08/14 12:30:52;;;;;;;31.23;29.33;;;29.70;99.90;;;;;;5059868;28;20291;-76
2022/08/14 12:33:31;;;;;;;31.92;29.92;;;29.70;99.90;;;;;;5059013;28;20091;-74
2022/08/14 12:36:02;;;;;;;32.55;30.65;;;29.30;99.90;;;;;;5057591;28;20048;-74
2022/08/14 12:38:42;;;;;;;32.20;30.20;;;29.00;99.90;;;;;;5040456;28;20143;-77
2022/08/14 12:41:19;;;;;;;31.50;29.70;;;29.20;99.90;;;;;;5079275;28;20051;-74
2022/08/14 12:44:00;;;;;;;30.63;28.90;;;29.50;99.90;;;;;;5082971;28;20135;-74
2022/08/14 12:46:39;;;;;;;31.55;29.65;;;29.50;99.90;;;;;;5066981;28;20046;-74
2022/08/14 12:49:15;;;;;;;31.58;29.73;;;29.10;99.90;;;;;;5068351;28;20119;-75
2022/08/14 12:51:55;;;;;;;32.67;30.48;;;29.70;99.90;;;;;;5076678;28;20036;-76
2022/08/14 12:54:22;;;;;;;30.98;29.08;;;30.20;99.90;;;;;;5079327;28;20538;-76
2022/08/14 12:57:10;;;;;;;31.65;29.80;;;29.80;99.90;;;;;;5081123;28;20071;-76
2022/08/14 12:59:44;;;;;;;33.03;31.08;;;29.20;99.90;;;;;;5083058;28;20042;-76
2022/08/14 13:02:23;;;;;;;31.55;29.75;;;29.40;99.90;;;;;;5062048;28;20421;-75
2022/08/14 13:04:56;;;;;;;31.05;29.25;;;29.30;99.90;;;;;;5064480;28;20097;-77
2022/08/14 13:07:27;;;;;;;31.02;29.13;;;29.20;99.90;;;;;;5061606;28;20047;-76
2022/08/14 13:09:59;;;;;;;32.38;30.58;;;29.70;99.90;;;;;;5083883;28;20681;-75
2022/08/14 13:12:48;;;;;;;33.40;31.30;;;29.90;99.90;;;;;;5069371;28;20741;-75
2022/08/14 13:15:37;;;;;;;33.50;31.70;;;29.90;99.90;;;;;;5084945;28;20132;-74
2022/08/14 13:18:09;;;;;;;32.60;30.73;;;30.20;99.90;;;;;;5089162;28;20040;-76
2022/08/14 13:20:36;;;;;;;31.08;29.17;;;29.90;99.90;;;;;;5084214;28;20126;-76